Nikitis — SVA7358 — position and weather

sailwx.info

Track history (hours):
 
Tides and Currents Weather Stations Pressure Air Temp Water Temp Dewpoint Dewpoint Depression Visibility Wind Speed Wind Dir Waves Ship Positions

Nikitis

Last reported at 2018-Aug-19 15:00 UTC. Time now 2018-Aug-19 15:21 UTC.
Position N 40°47' E 024°42'.

Length 39 m.

Type: Passenger vessel. MMSI: 239992800.

Date/timePositionNaut miles runAvg speedWind from/ knotsBaromVisibWave heightAir tempDewpointWater temp
2018-Aug-19 15:00N 40°47' E 024°42'2 3.3
2018-Aug-19 14:30N 40°48' E 024°41'3 6.4
2018-Aug-19 14:00N 40°51' E 024°42'0 0.0
2018-Aug-19 13:30N 40°51' E 024°42'3 5.5
2018-Aug-19 13:00N 40°49' E 024°42'2 3.9
2018-Aug-19 12:30N 40°47' E 024°42'0 0.4
2018-Aug-19 12:00N 40°47' E 024°42'1 2.8
2018-Aug-19 11:30N 40°48' E 024°41'2 4.2
2018-Aug-19 11:00N 40°48' E 024°38'2 4.8
2018-Aug-19 10:30N 40°47' E 024°35'2 0.1
2018-Aug-18 22:13N 40°46' E 024°35'0 0.0
2018-Aug-18 22:00N 40°46' E 024°35'3 6.8
2018-Aug-18 21:30N 40°48' E 024°37'3 6.1
2018-Aug-18 21:00N 40°48' E 024°41'1 2.0
2018-Aug-18 20:30N 40°49' E 024°42'3 5.7
2018-Aug-18 20:00N 40°51' E 024°42'1 2.4
2018-Aug-18 19:30N 40°51' E 024°41'4 7.8
2018-Aug-18 19:00N 40°47' E 024°42'0 0.0
2018-Aug-18 18:30N 40°47' E 024°42'2 3.3
2018-Aug-18 18:00N 40°48' E 024°42'3 6.1
2018-Aug-18 17:30N 40°51' E 024°42'0 0.0
2018-Aug-18 17:00N 40°51' E 024°42'0 0.1
2018-Aug-18 16:30N 40°51' E 024°42'0 0.0
2018-Aug-18 16:00N 40°51' E 024°42'1 2.6
2018-Aug-18 15:30N 40°50' E 024°41'3 6.1
2018-Aug-18 15:00N 40°47' E 024°42'1 2.3
2018-Aug-18 14:30N 40°49' E 024°42'3 5.8
2018-Aug-18 14:00N 40°51' E 024°42'0 0.0
2018-Aug-18 13:30N 40°51' E 024°42'0 0.0
2018-Aug-18 09:21N 40°51' E 024°42'1 3.1
2018-Aug-18 09:00N 40°51' E 024°41'4 7.3
2018-Aug-18 08:30N 40°47' E 024°42'1 2.6
2018-Aug-18 08:01N 40°49' E 024°42'3 5.8
2018-Aug-18 07:31N 40°51' E 024°42'0 0.0
2018-Aug-18 07:00N 40°51' E 024°42'3 5.5
2018-Aug-18 06:30N 40°49' E 024°42'2 3.9
2018-Aug-18 06:00N 40°47' E 024°42'5 9.5
2018-Aug-18 05:30N 40°52' E 024°41'2 3.3
2018-Aug-18 05:01N 40°51' E 024°39'5 9.6
2018-Aug-18 04:31N 40°47' E 024°35'2 3.0
2018-Aug-18 04:00N 40°46' E 024°35'2 4.8
2018-Aug-18 03:30N 40°48' E 024°36'4 8.7
2018-Aug-18 03:00N 40°51' E 024°40'2 3.5
2018-Aug-18 02:29N 40°51' E 024°42'0 0.0
2018-Aug-17 20:18N 40°51' E 024°42'0 0.0
2018-Aug-17 20:00N 40°51' E 024°42'0 0.0
2018-Aug-17 19:30N 40°51' E 024°42'0 0.0
2018-Aug-17 19:00N 40°51' E 024°42'0 0.0
2018-Aug-17 18:30N 40°51' E 024°42'0 0.0
2018-Aug-17 18:00N 40°51' E 024°42'1 1.6
2018-Aug-17 17:30N 40°51' E 024°41'4 7.1
2018-Aug-17 17:00N 40°48' E 024°42'1 1.7
2018-Aug-17 16:30N 40°49' E 024°42'3 5.7
2018-Aug-17 16:00N 40°51' E 024°42'0 0.0
2018-Aug-17 15:30N 40°51' E 024°42'1 2.1
2018-Aug-17 15:00N 40°51' E 024°42'2 2.1
2018-Aug-17 14:00N 40°48' E 024°42'3 6.0
2018-Aug-17 13:30N 40°51' E 024°42'0 0.1
2018-Aug-17 13:00N 40°51' E 024°42'0 0.0
2018-Aug-17 11:09N 40°51' E 024°42'0 2.4
2018-Aug-17 11:00N 40°52' E 024°42'4 8.3
2018-Aug-17 10:30N 40°47' E 024°42'1 2.2
2018-Aug-17 10:00N 40°48' E 024°42'3 6.1
2018-Aug-17 09:30N 40°51' E 024°42'0 0.0
2018-Aug-17 09:00N 40°51' E 024°42'3 6.0
2018-Aug-17 08:30N 40°48' E 024°42'1 1.3
2018-Aug-17 08:00N 40°48' E 024°42'3 7.1
2018-Aug-17 07:31N 40°51' E 024°42'0 0.0
2018-Aug-17 07:00N 40°51' E 024°42'3 5.3
2018-Aug-17 06:30N 40°49' E 024°41'2 4.3
2018-Aug-17 06:00N 40°47' E 024°42'4 7.7
2018-Aug-17 05:30N 40°51' E 024°41'1 2.5
2018-Aug-17 05:00N 40°51' E 024°40'5 9.5
2018-Aug-17 04:31N 40°48' E 024°36'2 4.3
2018-Aug-17 04:00N 40°46' E 024°35'2 4.7
2018-Aug-17 03:30N 40°48' E 024°36'4 8.8
2018-Aug-17 03:00N 40°51' E 024°40'2 3.3
2018-Aug-17 02:30N 40°51' E 024°42'0 0.0
2018-Aug-16 17:48N 40°51' E 024°42'1 2.6
2018-Aug-16 17:30N 40°51' E 024°41'3 7.0
2018-Aug-16 17:00N 40°48' E 024°42'1 1.9
2018-Aug-16 16:30N 40°49' E 024°42'3 5.5
2018-Aug-16 16:00N 40°51' E 024°42'0 0.2
2018-Aug-16 15:30N 40°51' E 024°42'0 0.0
2018-Aug-16 11:14N 40°51' E 024°42'1 2.3
2018-Aug-16 11:00N 40°52' E 024°41'4 7.3
2018-Aug-16 10:30N 40°48' E 024°42'0 0.7
2018-Aug-16 10:00N 40°48' E 024°42'3 6.1
2018-Aug-16 09:30N 40°51' E 024°42'0 0.7
2018-Aug-16 09:00N 40°52' E 024°42'1 1.7
2018-Aug-16 08:30N 40°51' E 024°41'3 6.8
2018-Aug-16 08:00N 40°48' E 024°42'1 1.2
2018-Aug-16 07:30N 40°48' E 024°42'3 6.2
2018-Aug-16 07:00N 40°51' E 024°42'0 0.0
2018-Aug-16 06:30N 40°51' E 024°42'3 5.6
2018-Aug-16 06:00N 40°49' E 024°42'2 3.8
2018-Aug-16 05:30N 40°47' E 024°42'2 3.6
2018-Aug-16 05:00N 40°49' E 024°42'3 5.9
2018-Aug-16 04:30N 40°51' E 024°42'0 0.0
2018-Aug-16 04:00N 40°51' E 024°42'3 5.4
2018-Aug-16 03:30N 40°49' E 024°42'2 4.0
2018-Aug-16 03:00N 40°47' E 024°42'0 0.0
2018-Aug-15 15:59N 40°47' E 024°42'2 4.4
2018-Aug-15 15:30N 40°49' E 024°42'3 5.2
2018-Aug-15 15:00N 40°51' E 024°42'0 0.0
2018-Aug-15 14:30N 40°51' E 024°42'3 5.6
2018-Aug-15 14:00N 40°49' E 024°42'2 3.6
2018-Aug-15 13:29N 40°47' E 024°42'0 0.0
2018-Aug-15 13:00N 40°47' E 024°42'3 6.3
2018-Aug-15 12:30N 40°50' E 024°41'2 3.7
2018-Aug-15 12:00N 40°51' E 024°42'3 5.6
2018-Aug-15 11:30N 40°49' E 024°42'2 3.9
2018-Aug-15 11:00N 40°47' E 024°42'0 0.0
2018-Aug-15 10:30N 40°47' E 024°42'1 2.1
2018-Aug-15 10:00N 40°48' E 024°42'4 7.4
2018-Aug-15 09:30N 40°51' E 024°41'1 0.3
2018-Aug-15 06:56N 40°51' E 024°42'0 0.3
2018-Aug-15 06:30N 40°52' E 024°42'3 6.2
2018-Aug-15 06:00N 40°49' E 024°43'2 3.6
2018-Aug-15 05:30N 40°47' E 024°42'2 3.9
2018-Aug-15 05:00N 40°49' E 024°42'3 5.4
2018-Aug-15 04:30N 40°51' E 024°42'0 0.3
2018-Aug-15 04:00N 40°52' E 024°42'3 6.5
2018-Aug-15 03:31N 40°48' E 024°43'2 3.2
2018-Aug-15 03:00N 40°47' E 024°42'0 0.0
2018-Aug-14 15:56N 40°47' E 024°42'1 3.5
2018-Aug-14 15:30N 40°48' E 024°42'3 6.3
2018-Aug-14 15:00N 40°51' E 024°42'0 0.0
2018-Aug-14 14:30N 40°51' E 024°42'3 5.5
2018-Aug-14 14:00N 40°49' E 024°42'2 3.9
2018-Aug-14 13:30N 40°47' E 024°42'0 0.0
2018-Aug-14 13:00N 40°47' E 024°42'2 3.4
2018-Aug-14 12:30N 40°48' E 024°42'3 6.1
2018-Aug-14 12:00N 40°51' E 024°42'0 0.0
2018-Aug-14 11:30N 40°51' E 024°42'3 5.9
2018-Aug-14 11:00N 40°49' E 024°41'2 3.8
2018-Aug-14 10:30N 40°47' E 024°42'1 1.9
2018-Aug-14 10:00N 40°47' E 024°41'4 7.5
2018-Aug-14 09:30N 40°48' E 024°36'2 3.4
2018-Aug-14 09:00N 40°46' E 024°35'4 7.9
2018-Aug-14 08:30N 40°49' E 024°39'4 7.1
2018-Aug-14 07:59N 40°51' E 024°42'2 4.4
2018-Aug-14 07:30N 40°51' E 024°40'5 9.5
2018-Aug-14 07:00N 40°47' E 024°35'0 0.9
2018-Aug-14 06:30N 40°47' E 024°36'4 8.0
2018-Aug-14 06:00N 40°47' E 024°41'1 2.4
2018-Aug-14 05:30N 40°48' E 024°42'3 6.0
2018-Aug-14 05:00N 40°51' E 024°42'0 0.0
2018-Aug-14 04:30N 40°51' E 024°42'3 5.8
2018-Aug-14 04:00N 40°49' E 024°42'2 3.6
2018-Aug-14 03:30N 40°47' E 024°42'0 0.0
2018-Aug-13 19:52N 40°47' E 024°42'2 4.5
2018-Aug-13 19:30N 40°48' E 024°42'3 6.2
2018-Aug-13 19:01N 40°51' E 024°42'0 0.0
2018-Aug-13 18:30N 40°51' E 024°42'3 5.5
2018-Aug-13 18:00N 40°49' E 024°42'2 3.8
2018-Aug-13 17:30N 40°47' E 024°42'1 2.9
2018-Aug-13 17:01N 40°48' E 024°42'3 6.4
2018-Aug-13 16:30N 40°51' E 024°42'0 0.0
2018-Aug-13 16:00N 40°51' E 024°42'3 5.8
2018-Aug-13 15:31N 40°49' E 024°42'2 1.0
2018-Aug-13 13:44N 40°47' E 024°42'0 0.0
2018-Aug-13 13:30N 40°47' E 024°42'0 0.0
2018-Aug-13 12:54N 40°47' E 024°42'2 4.0
2018-Aug-13 12:30N 40°48' E 024°42'3 6.3
2018-Aug-13 12:00N 40°51' E 024°42'0 0.0
2018-Aug-13 11:30N 40°51' E 024°42'3 5.2
2018-Aug-13 11:00N 40°49' E 024°42'2 4.1
2018-Aug-13 10:30N 40°47' E 024°42'1 2.7
2018-Aug-13 10:00N 40°48' E 024°41'4 7.2
2018-Aug-13 09:30N 40°47' E 024°36'2 3.5
2018-Aug-13 09:00N 40°46' E 024°35'4 8.4
2018-Aug-13 08:30N 40°49' E 024°38'4 7.5
2018-Aug-13 08:00N 40°51' E 024°42'2 4.5
2018-Aug-13 07:30N 40°51' E 024°39'5 9.2
2018-Aug-13 07:00N 40°47' E 024°35'2 3.7
2018-Aug-13 06:30N 40°46' E 024°35'0 0.0
2018-Aug-12 21:08N 40°46' E 024°35'0 0.0
2018-Aug-12 21:00N 40°46' E 024°35'3 6.3
2018-Aug-12 20:30N 40°48' E 024°37'3 6.4
2018-Aug-12 20:00N 40°48' E 024°41'1 1.5
2018-Aug-12 19:30N 40°48' E 024°42'3 6.4
2018-Aug-12 19:01N 40°51' E 024°42'0 0.6
2018-Aug-12 18:30N 40°52' E 024°42'3 5.8
2018-Aug-12 18:00N 40°49' E 024°42'2 3.9
2018-Aug-12 17:30N 40°47' E 024°42'2 3.4
2018-Aug-12 17:00N 40°48' E 024°42'3 5.9
2018-Aug-12 16:30N 40°51' E 024°42'0 0.0
2018-Aug-12 16:00N 40°51' E 024°42'0 0.0
2018-Aug-12 10:05N 40°51' E 024°42'0 0.0
2018-Aug-12 10:01N 40°51' E 024°42'0 0.1
2018-Aug-12 08:01N 40°51' E 024°42'0 0.0
2018-Aug-12 08:00N 40°51' E 024°42'3 5.3
2018-Aug-12 07:30N 40°49' E 024°42'1 2.0
2018-Aug-12 07:00N 40°48' E 024°43'3 6.9
2018-Aug-12 06:30N 40°51' E 024°42'0 0.0
2018-Aug-12 06:00N 40°51' E 024°42'3 5.8
2018-Aug-12 05:30N 40°49' E 024°42'2 1.4
2018-Aug-12 04:16N 40°47' E 024°42'2 6.0
2018-Aug-12 04:00N 40°48' E 024°42'3 6.2
2018-Aug-12 03:30N 40°51' E 024°42'0 0.3
2018-Aug-12 03:00N 40°51' E 024°42'0 0.0
2018-Aug-11 21:10N 40°51' E 024°42'0 0.0
2018-Aug-11 21:00N 40°51' E 024°42'1 2.4
2018-Aug-11 20:30N 40°50' E 024°41'4 7.5
2018-Aug-11 20:00N 40°47' E 024°42'0 0.0
2018-Aug-11 19:30N 40°47' E 024°42'0 0.0
2018-Aug-11 19:00N 40°47' E 024°42'2 3.8
2018-Aug-11 18:30N 40°49' E 024°42'3 5.4
2018-Aug-11 18:00N 40°51' E 024°42'0 0.1
2018-Aug-11 17:31N 40°51' E 024°42'0 0.0
2018-Aug-11 08:45N 40°51' E 024°42'1 2.2
2018-Aug-11 08:30N 40°52' E 024°41'3 5.0
2018-Aug-11 08:00N 40°49' E 024°42'2 4.0
2018-Aug-11 07:30N 40°47' E 024°42'1 2.8
2018-Aug-11 07:00N 40°48' E 024°42'3 5.9
2018-Aug-11 06:30N 40°51' E 024°42'0 0.0
2018-Aug-11 06:00N 40°51' E 024°42'3 5.8
2018-Aug-11 05:30N 40°49' E 024°42'2 3.6
2018-Aug-11 05:00N 40°47' E 024°42'0 0.0
2018-Aug-11 04:15N 40°47' E 024°42'2 6.1
2018-Aug-11 04:00N 40°48' E 024°42'3 6.4
2018-Aug-11 03:30N 40°51' E 024°42'0 0.0
2018-Aug-10 21:26N 40°51' E 024°42'0 0.2
2018-Aug-10 21:00N 40°52' E 024°42'1 2.8
2018-Aug-10 20:30N 40°51' E 024°41'4 7.8
2018-Aug-10 20:00N 40°47' E 024°42'0 0.0
2018-Aug-10 19:30N 40°47' E 024°42'0 0.0
2018-Aug-10 19:00N 40°47' E 024°42'1 1.9
2018-Aug-10 18:30N 40°48' E 024°42'3 6.0
2018-Aug-10 18:00N 40°51' E 024°41'1 0.1
2018-Aug-10 05:49N 40°51' E 024°42'0 0.4
2018-Aug-10 05:30N 40°52' E 024°42'3 6.7
2018-Aug-10 05:00N 40°48' E 024°43'1 2.9
2018-Aug-10 04:30N 40°47' E 024°42'0 0.0
2018-Aug-10 03:16N 40°47' E 024°42'0 0.0
2018-Aug-10 03:00N 40°47' E 024°42'4 8.2
2018-Aug-10 02:30N 40°51' E 024°41'1 2.2
2018-Aug-10 02:00N 40°51' E 024°42'0 0.0
2018-Aug-09 19:54N 40°51' E 024°42'0 0.3
2018-Aug-09 19:30N 40°51' E 024°42'1 2.6
2018-Aug-09 19:00N 40°51' E 024°41'4 8.3
2018-Aug-09 18:30N 40°47' E 024°42'0 0.0
2018-Aug-09 18:01N 40°47' E 024°42'2 3.3
2018-Aug-09 17:30N 40°48' E 024°41'3 6.3
2018-Aug-09 17:00N 40°51' E 024°42'0 0.0
2018-Aug-09 16:30N 40°51' E 024°42'3 5.8
2018-Aug-09 16:00N 40°49' E 024°41'2 3.8
2018-Aug-09 15:30N 40°47' E 024°42'  
Track history (hours):
 
Tides and Currents Weather Stations Pressure Air Temp Water Temp Dewpoint Dewpoint Depression Visibility Wind Speed Wind Dir Waves Ship Positions

Nikitis

Last reported at 2018-Aug-19 15:00 UTC. Time now 2018-Aug-19 15:21 UTC.
Position N 40°47' E 024°42'.

Length 39 m.

Type: Passenger vessel. MMSI: 239992800.

Date/timePositionNaut miles runAvg speedWind from/ knotsBaromVisibWave heightAir tempDewpointWater temp
2018-Aug-19 15:00N 40°47' E 024°42'2 3.3
2018-Aug-19 14:30N 40°48' E 024°41'3 6.4
2018-Aug-19 14:00N 40°51' E 024°42'0 0.0
2018-Aug-19 13:30N 40°51' E 024°42'3 5.5
2018-Aug-19 13:00N 40°49' E 024°42'2 3.9
2018-Aug-19 12:30N 40°47' E 024°42'0 0.4
2018-Aug-19 12:00N 40°47' E 024°42'1 2.8
2018-Aug-19 11:30N 40°48' E 024°41'2 4.2
2018-Aug-19 11:00N 40°48' E 024°38'2 4.8
2018-Aug-19 10:30N 40°47' E 024°35'2 0.1
2018-Aug-18 22:13N 40°46' E 024°35'0 0.0
2018-Aug-18 22:00N 40°46' E 024°35'3 6.8
2018-Aug-18 21:30N 40°48' E 024°37'3 6.1
2018-Aug-18 21:00N 40°48' E 024°41'1 2.0
2018-Aug-18 20:30N 40°49' E 024°42'3 5.7
2018-Aug-18 20:00N 40°51' E 024°42'1 2.4
2018-Aug-18 19:30N 40°51' E 024°41'4 7.8
2018-Aug-18 19:00N 40°47' E 024°42'0 0.0
2018-Aug-18 18:30N 40°47' E 024°42'2 3.3
2018-Aug-18 18:00N 40°48' E 024°42'3 6.1
2018-Aug-18 17:30N 40°51' E 024°42'0 0.0
2018-Aug-18 17:00N 40°51' E 024°42'0 0.1
2018-Aug-18 16:30N 40°51' E 024°42'0 0.0
2018-Aug-18 16:00N 40°51' E 024°42'1 2.6
2018-Aug-18 15:30N 40°50' E 024°41'3 6.1
2018-Aug-18 15:00N 40°47' E 024°42'1 2.3
2018-Aug-18 14:30N 40°49' E 024°42'3 5.8
2018-Aug-18 14:00N 40°51' E 024°42'0 0.0
2018-Aug-18 13:30N 40°51' E 024°42'0 0.0
2018-Aug-18 09:21N 40°51' E 024°42'1 3.1
2018-Aug-18 09:00N 40°51' E 024°41'4 7.3
2018-Aug-18 08:30N 40°47' E 024°42'1 2.6
2018-Aug-18 08:01N 40°49' E 024°42'3 5.8
2018-Aug-18 07:31N 40°51' E 024°42'0 0.0
2018-Aug-18 07:00N 40°51' E 024°42'3 5.5
2018-Aug-18 06:30N 40°49' E 024°42'2 3.9
2018-Aug-18 06:00N 40°47' E 024°42'5 9.5
2018-Aug-18 05:30N 40°52' E 024°41'2 3.3
2018-Aug-18 05:01N 40°51' E 024°39'5 9.6
2018-Aug-18 04:31N 40°47' E 024°35'2 3.0
2018-Aug-18 04:00N 40°46' E 024°35'2 4.8
2018-Aug-18 03:30N 40°48' E 024°36'4 8.7
2018-Aug-18 03:00N 40°51' E 024°40'2 3.5
2018-Aug-18 02:29N 40°51' E 024°42'0 0.0
2018-Aug-17 20:18N 40°51' E 024°42'0 0.0
2018-Aug-17 20:00N 40°51' E 024°42'0 0.0
2018-Aug-17 19:30N 40°51' E 024°42'0 0.0
2018-Aug-17 19:00N 40°51' E 024°42'0 0.0
2018-Aug-17 18:30N 40°51' E 024°42'0 0.0
2018-Aug-17 18:00N 40°51' E 024°42'1 1.6
2018-Aug-17 17:30N 40°51' E 024°41'4 7.1
2018-Aug-17 17:00N 40°48' E 024°42'1 1.7
2018-Aug-17 16:30N 40°49' E 024°42'3 5.7
2018-Aug-17 16:00N 40°51' E 024°42'0 0.0
2018-Aug-17 15:30N 40°51' E 024°42'1 2.1
2018-Aug-17 15:00N 40°51' E 024°42'2 2.1
2018-Aug-17 14:00N 40°48' E 024°42'3 6.0
2018-Aug-17 13:30N 40°51' E 024°42'0 0.1
2018-Aug-17 13:00N 40°51' E 024°42'0 0.0
2018-Aug-17 11:09N 40°51' E 024°42'0 2.4
2018-Aug-17 11:00N 40°52' E 024°42'4 8.3
2018-Aug-17 10:30N 40°47' E 024°42'1 2.2
2018-Aug-17 10:00N 40°48' E 024°42'3 6.1
2018-Aug-17 09:30N 40°51' E 024°42'0 0.0
2018-Aug-17 09:00N 40°51' E 024°42'3 6.0
2018-Aug-17 08:30N 40°48' E 024°42'1 1.3
2018-Aug-17 08:00N 40°48' E 024°42'3 7.1
2018-Aug-17 07:31N 40°51' E 024°42'0 0.0
2018-Aug-17 07:00N 40°51' E 024°42'3 5.3
2018-Aug-17 06:30N 40°49' E 024°41'2 4.3
2018-Aug-17 06:00N 40°47' E 024°42'4 7.7
2018-Aug-17 05:30N 40°51' E 024°41'1 2.5
2018-Aug-17 05:00N 40°51' E 024°40'5 9.5
2018-Aug-17 04:31N 40°48' E 024°36'2 4.3
2018-Aug-17 04:00N 40°46' E 024°35'2 4.7
2018-Aug-17 03:30N 40°48' E 024°36'4 8.8
2018-Aug-17 03:00N 40°51' E 024°40'2 3.3
2018-Aug-17 02:30N 40°51' E 024°42'0 0.0
2018-Aug-16 17:48N 40°51' E 024°42'1 2.6
2018-Aug-16 17:30N 40°51' E 024°41'3 7.0
2018-Aug-16 17:00N 40°48' E 024°42'1 1.9
2018-Aug-16 16:30N 40°49' E 024°42'3 5.5
2018-Aug-16 16:00N 40°51' E 024°42'0 0.2
2018-Aug-16 15:30N 40°51' E 024°42'0 0.0
2018-Aug-16 11:14N 40°51' E 024°42'1 2.3
2018-Aug-16 11:00N 40°52' E 024°41'4 7.3
2018-Aug-16 10:30N 40°48' E 024°42'0 0.7
2018-Aug-16 10:00N 40°48' E 024°42'3 6.1
2018-Aug-16 09:30N 40°51' E 024°42'0 0.7
2018-Aug-16 09:00N 40°52' E 024°42'1 1.7
2018-Aug-16 08:30N 40°51' E 024°41'3 6.8
2018-Aug-16 08:00N 40°48' E 024°42'1 1.2
2018-Aug-16 07:30N 40°48' E 024°42'3 6.2
2018-Aug-16 07:00N 40°51' E 024°42'0 0.0
2018-Aug-16 06:30N 40°51' E 024°42'3 5.6
2018-Aug-16 06:00N 40°49' E 024°42'2 3.8
2018-Aug-16 05:30N 40°47' E 024°42'2 3.6
2018-Aug-16 05:00N 40°49' E 024°42'3 5.9
2018-Aug-16 04:30N 40°51' E 024°42'0 0.0
2018-Aug-16 04:00N 40°51' E 024°42'3 5.4
2018-Aug-16 03:30N 40°49' E 024°42'2 4.0
2018-Aug-16 03:00N 40°47' E 024°42'0 0.0
2018-Aug-15 15:59N 40°47' E 024°42'2 4.4
2018-Aug-15 15:30N 40°49' E 024°42'3 5.2
2018-Aug-15 15:00N 40°51' E 024°42'0 0.0
2018-Aug-15 14:30N 40°51' E 024°42'3 5.6
2018-Aug-15 14:00N 40°49' E 024°42'2 3.6
2018-Aug-15 13:29N 40°47' E 024°42'0 0.0
2018-Aug-15 13:00N 40°47' E 024°42'3 6.3
2018-Aug-15 12:30N 40°50' E 024°41'2 3.7
2018-Aug-15 12:00N 40°51' E 024°42'3 5.6
2018-Aug-15 11:30N 40°49' E 024°42'2 3.9
2018-Aug-15 11:00N 40°47' E 024°42'0 0.0
2018-Aug-15 10:30N 40°47' E 024°42'1 2.1
2018-Aug-15 10:00N 40°48' E 024°42'4 7.4
2018-Aug-15 09:30N 40°51' E 024°41'1 0.3
2018-Aug-15 06:56N 40°51' E 024°42'0 0.3
2018-Aug-15 06:30N 40°52' E 024°42'3 6.2
2018-Aug-15 06:00N 40°49' E 024°43'2 3.6
2018-Aug-15 05:30N 40°47' E 024°42'2 3.9
2018-Aug-15 05:00N 40°49' E 024°42'3 5.4
2018-Aug-15 04:30N 40°51' E 024°42'0 0.3
2018-Aug-15 04:00N 40°52' E 024°42'3 6.5
2018-Aug-15 03:31N 40°48' E 024°43'2 3.2
2018-Aug-15 03:00N 40°47' E 024°42'0 0.0
2018-Aug-14 15:56N 40°47' E 024°42'1 3.5
2018-Aug-14 15:30N 40°48' E 024°42'3 6.3
2018-Aug-14 15:00N 40°51' E 024°42'0 0.0
2018-Aug-14 14:30N 40°51' E 024°42'3 5.5
2018-Aug-14 14:00N 40°49' E 024°42'2 3.9
2018-Aug-14 13:30N 40°47' E 024°42'0 0.0
2018-Aug-14 13:00N 40°47' E 024°42'2 3.4
2018-Aug-14 12:30N 40°48' E 024°42'3 6.1
2018-Aug-14 12:00N 40°51' E 024°42'0 0.0
2018-Aug-14 11:30N 40°51' E 024°42'3 5.9
2018-Aug-14 11:00N 40°49' E 024°41'2 3.8
2018-Aug-14 10:30N 40°47' E 024°42'1 1.9
2018-Aug-14 10:00N 40°47' E 024°41'4 7.5
2018-Aug-14 09:30N 40°48' E 024°36'2 3.4
2018-Aug-14 09:00N 40°46' E 024°35'4 7.9
2018-Aug-14 08:30N 40°49' E 024°39'4 7.1
2018-Aug-14 07:59N 40°51' E 024°42'2 4.4
2018-Aug-14 07:30N 40°51' E 024°40'5 9.5
2018-Aug-14 07:00N 40°47' E 024°35'0 0.9
2018-Aug-14 06:30N 40°47' E 024°36'4 8.0
2018-Aug-14 06:00N 40°47' E 024°41'1 2.4
2018-Aug-14 05:30N 40°48' E 024°42'3 6.0
2018-Aug-14 05:00N 40°51' E 024°42'0 0.0
2018-Aug-14 04:30N 40°51' E 024°42'3 5.8
2018-Aug-14 04:00N 40°49' E 024°42'2 3.6
2018-Aug-14 03:30N 40°47' E 024°42'0 0.0
2018-Aug-13 19:52N 40°47' E 024°42'2 4.5
2018-Aug-13 19:30N 40°48' E 024°42'3 6.2
2018-Aug-13 19:01N 40°51' E 024°42'0 0.0
2018-Aug-13 18:30N 40°51' E 024°42'3 5.5
2018-Aug-13 18:00N 40°49' E 024°42'2 3.8
2018-Aug-13 17:30N 40°47' E 024°42'1 2.9
2018-Aug-13 17:01N 40°48' E 024°42'3 6.4
2018-Aug-13 16:30N 40°51' E 024°42'0 0.0
2018-Aug-13 16:00N 40°51' E 024°42'3 5.8
2018-Aug-13 15:31N 40°49' E 024°42'2 1.0
2018-Aug-13 13:44N 40°47' E 024°42'0 0.0
2018-Aug-13 13:30N 40°47' E 024°42'0 0.0
2018-Aug-13 12:54N 40°47' E 024°42'2 4.0
2018-Aug-13 12:30N 40°48' E 024°42'3 6.3
2018-Aug-13 12:00N 40°51' E 024°42'0 0.0
2018-Aug-13 11:30N 40°51' E 024°42'3 5.2
2018-Aug-13 11:00N 40°49' E 024°42'2 4.1
2018-Aug-13 10:30N 40°47' E 024°42'1 2.7
2018-Aug-13 10:00N 40°48' E 024°41'4 7.2
2018-Aug-13 09:30N 40°47' E 024°36'2 3.5
2018-Aug-13 09:00N 40°46' E 024°35'4 8.4
2018-Aug-13 08:30N 40°49' E 024°38'4 7.5
2018-Aug-13 08:00N 40°51' E 024°42'2 4.5
2018-Aug-13 07:30N 40°51' E 024°39'5 9.2
2018-Aug-13 07:00N 40°47' E 024°35'2 3.7
2018-Aug-13 06:30N 40°46' E 024°35'0 0.0
2018-Aug-12 21:08N 40°46' E 024°35'0 0.0
2018-Aug-12 21:00N 40°46' E 024°35'3 6.3
2018-Aug-12 20:30N 40°48' E 024°37'3 6.4
2018-Aug-12 20:00N 40°48' E 024°41'1 1.5
2018-Aug-12 19:30N 40°48' E 024°42'3 6.4
2018-Aug-12 19:01N 40°51' E 024°42'0 0.6
2018-Aug-12 18:30N 40°52' E 024°42'3 5.8
2018-Aug-12 18:00N 40°49' E 024°42'2 3.9
2018-Aug-12 17:30N 40°47' E 024°42'2 3.4
2018-Aug-12 17:00N 40°48' E 024°42'3 5.9
2018-Aug-12 16:30N 40°51' E 024°42'0 0.0
2018-Aug-12 16:00N 40°51' E 024°42'0 0.0
2018-Aug-12 10:05N 40°51' E 024°42'0 0.0
2018-Aug-12 10:01N 40°51' E 024°42'0 0.1
2018-Aug-12 08:01N 40°51' E 024°42'0 0.0
2018-Aug-12 08:00N 40°51' E 024°42'3 5.3
2018-Aug-12 07:30N 40°49' E 024°42'1 2.0
2018-Aug-12 07:00N 40°48' E 024°43'3 6.9
2018-Aug-12 06:30N 40°51' E 024°42'0 0.0
2018-Aug-12 06:00N 40°51' E 024°42'3 5.8
2018-Aug-12 05:30N 40°49' E 024°42'2 1.4
2018-Aug-12 04:16N 40°47' E 024°42'2 6.0
2018-Aug-12 04:00N 40°48' E 024°42'3 6.2
2018-Aug-12 03:30N 40°51' E 024°42'0 0.3
2018-Aug-12 03:00N 40°51' E 024°42'0 0.0
2018-Aug-11 21:10N 40°51' E 024°42'0 0.0
2018-Aug-11 21:00N 40°51' E 024°42'1 2.4
2018-Aug-11 20:30N 40°50' E 024°41'4 7.5
2018-Aug-11 20:00N 40°47' E 024°42'0 0.0
2018-Aug-11 19:30N 40°47' E 024°42'0 0.0
2018-Aug-11 19:00N 40°47' E 024°42'2 3.8
2018-Aug-11 18:30N 40°49' E 024°42'3 5.4
2018-Aug-11 18:00N 40°51' E 024°42'0 0.1
2018-Aug-11 17:31N 40°51' E 024°42'0 0.0
2018-Aug-11 08:45N 40°51' E 024°42'1 2.2
2018-Aug-11 08:30N 40°52' E 024°41'3 5.0
2018-Aug-11 08:00N 40°49' E 024°42'2 4.0
2018-Aug-11 07:30N 40°47' E 024°42'1 2.8
2018-Aug-11 07:00N 40°48' E 024°42'3 5.9
2018-Aug-11 06:30N 40°51' E 024°42'0 0.0
2018-Aug-11 06:00N 40°51' E 024°42'3 5.8
2018-Aug-11 05:30N 40°49' E 024°42'2 3.6
2018-Aug-11 05:00N 40°47' E 024°42'0 0.0
2018-Aug-11 04:15N 40°47' E 024°42'2 6.1
2018-Aug-11 04:00N 40°48' E 024°42'3 6.4
2018-Aug-11 03:30N 40°51' E 024°42'0 0.0
2018-Aug-10 21:26N 40°51' E 024°42'0 0.2
2018-Aug-10 21:00N 40°52' E 024°42'1 2.8
2018-Aug-10 20:30N 40°51' E 024°41'4 7.8
2018-Aug-10 20:00N 40°47' E 024°42'0 0.0
2018-Aug-10 19:30N 40°47' E 024°42'0 0.0
2018-Aug-10 19:00N 40°47' E 024°42'1 1.9
2018-Aug-10 18:30N 40°48' E 024°42'3 6.0
2018-Aug-10 18:00N 40°51' E 024°41'1 0.1
2018-Aug-10 05:49N 40°51' E 024°42'0 0.4
2018-Aug-10 05:30N 40°52' E 024°42'3 6.7
2018-Aug-10 05:00N 40°48' E 024°43'1 2.9
2018-Aug-10 04:30N 40°47' E 024°42'0 0.0
2018-Aug-10 03:16N 40°47' E 024°42'0 0.0
2018-Aug-10 03:00N 40°47' E 024°42'4 8.2
2018-Aug-10 02:30N 40°51' E 024°41'1 2.2
2018-Aug-10 02:00N 40°51' E 024°42'0 0.0
2018-Aug-09 19:54N 40°51' E 024°42'0 0.3
2018-Aug-09 19:30N 40°51' E 024°42'1 2.6
2018-Aug-09 19:00N 40°51' E 024°41'4 8.3
2018-Aug-09 18:30N 40°47' E 024°42'0 0.0
2018-Aug-09 18:01N 40°47' E 024°42'2 3.3
2018-Aug-09 17:30N 40°48' E 024°41'3 6.3
2018-Aug-09 17:00N 40°51' E 024°42'0 0.0
2018-Aug-09 16:30N 40°51' E 024°42'3 5.8
2018-Aug-09 16:00N 40°49' E 024°41'2 3.8
2018-Aug-09 15:30N 40°47' E 024°42'  

Dump ship's entire track history